AirNav   MODERNIZE NOT PRIVATIZE ATC
 
 388 users online  

OI35 Scott Park Heliport
Toledo, Ohio, USA

GOING TO TOLEDO?


FAA INFORMATION EFFECTIVE 20 JULY 2017

Location

FAA Identifier: OI35
Lat/Long: 41-38-23.1800N / 083-35-35.7650W
41-38.386333N / 083-35.596083W
41.6397722 / -83.5932681
(estimated)
Elevation: 620 ft. / 189 m (estimated)
Variation: 05W (2000)
From city: 3 miles SW of TOLEDO, OH
Time zone: UTC -4 (UTC -5 during Standard Time)
Zip code: 43607

Heliport Operations

Heliport use: Private use. Permission required prior to landing
Activation date: 08/1978
Control tower: no
ARTCC: CLEVELAND CENTER
FSS: CLEVELAND FLIGHT SERVICE STATION
Attendance: UNATNDD
Wind indicator: no
Segmented circle: no

Heliport Communications

WX AWOS-3 at DUH (6 nm NW): 119.175 (734-856-1563)
WX ASOS at TDZ (7 nm SE): 121.575 (419-838-5034)
WX ASOS at TOL (10 nm W): PHONE 419-865-8351
WX AWOS-3 at 1G0 (15 nm S): 120.725 (419-354-1415)
WX AWOS-3 at TTF (19 nm N): 119.075 (734-384-0259)

Nearby radio navigation aids

VOR radial/distance  VOR name  Freq  Var
VWVr012/11.5WATERVILLE VOR/DME113.1002W
CRLr197/25.2CARLETON VORTAC115.7003W
DXOr202/35.9DETROIT VOR/DME113.4006W

 
NDB name  Hdg/Dist  Freq  Var  ID
ADRIAN129/25.727806WADG .- -.. --.
TECUMSEH157/27.023906WTCU - -.-. ..-
PORT CLINTON290/33.342307WPCW .--. -.-. .--
GROSSE ILE222/34.041907WRYS .-. -.-- ...
TIFFIN337/36.926905WTII - .. ..
BENTON RIDGE010/37.333405WBNR -... -. .-.

Heliport Services

Runway Information

Helipad H1

Dimensions: 380 x 261 ft. / 116 x 80 m
Surface: turf
Traffic pattern: leftleft

Heliport Ownership and Management from official FAA records

Ownership: Publicly-owned
Owner: UNIVERSITY OF TOLEDO
2801 WEST BANCROFT
TOLEDO, OH 43606
Phone 419-537-2072

Instrument Procedures

There are no published instrument procedures at OI35.

Some nearby airports with instrument procedures:

KDUH - Toledo Suburban Airport (6 nm NW)
KTDZ - Toledo Executive Airport (7 nm SE)
KTOL - Toledo Express Airport (10 nm W)
1G0 - Wood County Airport (15 nm S)
KTTF - Custer Airport (19 nm N)
 
Loc | Ops | Rwys | IFR | FBO | Links
Com | Nav | Svcs | Stats | Notes

City of Findlay
 
Area around OI35 (Scott Park Heliport)
 
Road maps at: MapQuest Bing Google
 
Aerial photo
No photo
 
Sectional chart

 
Airport distance calculator
Flying to Scott Park Heliport? Find the distance to fly.

From to OI35

Sunrise and sunset
Times for 27-Jul-2017
 Local
(UTC-4)
 Zulu
(UTC)
Morning civil twilight05:5309:53
Sunrise06:2510:25
Sunset20:5700:57
Evening civil twilight21:2901:29

Current date and time
Zulu (UTC)  27-Jul-2017 10:06:25
Local (UTC-4)  27-Jul-2017 06:06:25
 
METAR
KDUH 
6nm NW 
270955Z AUTO 00000KT 10SM CLR 19/18 A2995 RMK AO2 T01890180
KTDZ 
7nm SE 
270953Z AUTO 00000KT 8SM CLR 19/19 A2996 RMK AO2 SLP140 T01940189
KTOL 
10nm W 
270952Z 00000KT 10SM CLR 19/19 A2995 RMK AO2 SLP137 T01890189
KTTF 
19nm NE 
270951Z AUTO 00000KT 10SM CLR 19/19 A2994 RMK AO2 T01910185
TAF
KTOL 
10nm W 
270539Z 2706/2806 VRB03KT P6SM SCT150 BKN250 FM272200 07006KT P6SM SCT040 BKN080 FM280500 04007KT P6SM SCT080 BKN100
NOTAMs
Click for the latest NOTAMs
NOTAMs are issued by the DoD/FAA and will open in a separate window not controlled by AirNav.

 

 
 

Would you like to see your business listed on this page?

 If your business provides an interesting product or service to pilots, flight crews, aircraft, or users of the Scott Park Heliport, you should consider listing it here.  To start the listing process, click on the button below
 
Add a business
 

Other Pages about Scott Park Heliport

Update a link
 
Copyright © AirNav, LLC. All rights reserved. Privacy Policy  Contact